Time;durP1;ratioP1;P1;durP2;ratioP2;P2;SDS_P1;SDS_P2;PMS_P1;PMS_P2;Temp;Humidity;BMP_temperature;BMP_pressure;BME280_temperature;BME280_humidity;BME280_pressure;Samples;Min_cycle;Max_cycle;Signal;HPM_P1;HPM_P2
2022/07/07 00:02:04;;;;;;;;;;;;;;;;;;4916997;29;20399;-76
2022/07/07 00:04:31;;;;;;;;;;;;;;;;;;4913732;29;20307;-76
2022/07/07 00:06:59;;;;;;;;;;;;;;;;;;4911391;29;20002;-76
2022/07/07 00:09:27;;;;;;;;;;;;;;;;;;4918901;29;19926;-76
2022/07/07 00:11:54;;;;;;;;;;;;;;;;;;4923810;29;19933;-77
2022/07/07 00:14:21;;;;;;;;;;;;;;;;;;4927776;29;20585;-76
2022/07/07 00:16:49;;;;;;;;;;;;;;;;;;4927187;29;20372;-76
2022/07/07 00:19:16;;;;;;;;;;;;;;;;;;4927177;29;20033;-76
2022/07/07 00:21:43;;;;;;;;;;;;;;;;;;4925660;29;19922;-76
2022/07/07 00:24:11;;;;;;;;;;;;;;;;;;4925274;28;20122;-76
2022/07/07 00:26:38;;;;;;;;;;;;;;;;;;4925181;29;19923;-76
2022/07/07 00:29:06;;;;;;;;;;;;;;;;;;4928448;29;19927;-76
2022/07/07 00:31:34;;;;;;;;;;;;;;;;;;4928743;29;20323;-76
2022/07/07 00:34:01;;;;;;;;;;;;;;;;;;4925295;29;20123;-76
2022/07/07 00:36:28;;;;;;;;;;;;;;;;;;4927287;29;19922;-76
2022/07/07 00:38:56;;;;;;;;;;;;;;;;;;4910538;29;19927;-76
2022/07/07 00:41:23;;;;;;;;;;;;;;;;;;4913695;29;20484;-76
2022/07/07 00:43:50;;;;;;;;;;;;;;;;;;4920293;29;19966;-75
2022/07/07 00:46:17;;;;;;;;;;;;;;;;;;4912250;29;19933;-76
2022/07/07 00:48:45;;;;;;;;;;;;;;;;;;4909687;29;20309;-75
2022/07/07 00:51:12;;;;;;;;;;;;;;;;;;4916069;29;19930;-76
2022/07/07 00:53:39;;;;;;;;;;;;;;;;;;4920742;29;19965;-76
2022/07/07 00:56:07;;;;;;;;;;;;;;;;;;4919770;29;19927;-76
2022/07/07 00:58:34;;;;;;;;;;;;;;;;;;4920785;29;20549;-76
2022/07/07 01:01:01;;;;;;;;;;;;;;;;;;4923313;29;20331;-75
2022/07/07 01:03:29;;;;;;;;;;;;;;;;;;4918062;29;19957;-76
2022/07/07 01:05:57;;;;;;;;;;;;;;;;;;4916718;29;20280;-76
2022/07/07 01:08:24;;;;;;;;;;;;;;;;;;4900240;29;19935;-76
2022/07/07 01:10:51;;;;;;;;;;;;;;;;;;4902712;29;19931;-75
2022/07/07 01:13:19;;;;;;;;;;;;;;;;;;4932388;28;19937;-76
2022/07/07 01:15:46;;;;;;;;;;;;;;;;;;4895003;29;19926;-75
2022/07/07 01:18:14;;;;;;;;;;;;;;;;;;4910843;29;19927;-76
2022/07/07 01:20:41;;;;;;;;;;;;;;;;;;4897474;29;19933;-76
2022/07/07 01:23:08;;;;;;;;;;;;;;;;;;4922325;29;19923;-76
2022/07/07 01:25:36;;;;;;;;;;;;;;;;;;4923809;29;19934;-75
2022/07/07 01:28:03;;;;;;;;;;;;;;;;;;4910487;29;19927;-76
2022/07/07 01:30:30;;;;;;;;;;;;;;;;;;4909366;29;19930;-75
2022/07/07 01:32:57;;;;;;;;;;;;;;;;;;4925317;29;20029;-76
2022/07/07 01:35:25;;;;;;;;;;;;;;;;;;4906655;29;19931;-75
2022/07/07 01:37:52;;;;;;;;;;;;;;;;;;4940416;29;19926;-75
2022/07/07 01:40:19;;;;;;;;;;;;;;;;;;4925258;29;19927;-75
2022/07/07 01:42:46;;;;;;;;;;;;;;;;;;4910567;29;19933;-76
2022/07/07 01:45:14;;;;;;;;;;;;;;;;;;4918642;29;20144;-75
2022/07/07 01:47:41;;;;;;;;;;;;;;;;;;4907943;29;20216;-75
2022/07/07 01:50:08;;;;;;;;;;;;;;;;;;4906463;29;20288;-76
2022/07/07 01:52:36;;;;;;;;;;;;;;;;;;4909045;29;19933;-75
2022/07/07 01:55:04;;;;;;;;;;;;;;;;;;4910857;29;20233;-76
2022/07/07 01:57:31;;;;;;;;;;;;;;;;;;4909967;29;19926;-76
2022/07/07 01:59:58;;;;;;;;;;;;;;;;;;4930113;29;20034;-75
2022/07/07 02:02:25;;;;;;;;;;;;;;;;;;4933722;29;19922;-75
2022/07/07 02:04:53;;;;;;;;;;;;;;;;;;4925166;29;19982;-75
2022/07/07 02:07:20;;;;;;;;;;;;;;;;;;4932315;29;19923;-75
2022/07/07 02:09:47;;;;;;;;;;;;;;;;;;4931014;29;19927;-75
2022/07/07 02:12:14;;;;;;;;;;;;;;;;;;4918281;29;19926;-75
2022/07/07 02:14:42;;;;;;;;;;;;;;;;;;4933645;29;20049;-75
2022/07/07 02:17:09;;;;;;;;;;;;;;;;;;4931312;29;19927;-76
2022/07/07 02:19:36;;;;;;;;;;;;;;;;;;4933114;29;20083;-75
2022/07/07 02:22:04;;;;;;;;;;;;;;;;;;4933126;29;19926;-75
2022/07/07 02:24:31;;;;;;;;;;;;;;;;;;4933311;28;20123;-75
2022/07/07 02:26:58;;;;;;;;;;;;;;;;;;4931933;29;20442;-75
2022/07/07 02:29:26;;;;;;;;;;;;;;;;;;4935769;29;19930;-75
2022/07/07 02:31:53;;;;;;;;;;;;;;;;;;4933560;29;20205;-75
2022/07/07 02:34:20;;;;;;;;;;;;;;;;;;4932092;29;20399;-75
2022/07/07 02:36:48;;;;;;;;;;;;;;;;;;4932268;29;19981;-75
2022/07/07 02:39:15;;;;;;;;;;;;;;;;;;4929238;29;20314;-75
2022/07/07 02:41:42;;;;;;;;;;;;;;;;;;4940861;29;20403;-75
2022/07/07 02:44:10;;;;;;;;;;;;;;;;;;4931800;29;20037;-75
2022/07/07 02:46:37;;;;;;;;;;;;;;;;;;4931634;29;19949;-75
2022/07/07 02:49:04;;;;;;;;;;;;;;;;;;4928783;29;19922;-75
2022/07/07 02:51:31;;;;;;;;;;;;;;;;;;4926860;29;20339;-75
2022/07/07 02:54:00;;;;;;;;;;;;;;;;;;4912107;29;19974;-75
2022/07/07 02:56:27;;;;;;;;;;;;;;;;;;4925784;29;20076;-75
2022/07/07 02:58:54;;;;;;;;;;;;;;;;;;4927226;29;20398;-75
2022/07/07 03:01:22;;;;;;;;;;;;;;;;;;4928049;29;20442;-75
2022/07/07 03:03:49;;;;;;;;;;;;;;;;;;4926868;29;20314;-75
2022/07/07 03:06:16;;;;;;;;;;;;;;;;;;4928615;29;20459;-76
2022/07/07 03:08:44;;;;;;;;;;;;;;;;;;4928233;29;20314;-76
2022/07/07 03:11:12;;;;;;;;;;;;;;;;;;4928166;29;19927;-76
2022/07/07 03:13:39;;;;;;;;;;;;;;;;;;4927022;29;19929;-76
2022/07/07 03:16:06;;;;;;;;;;;;;;;;;;4928730;29;19926;-76
2022/07/07 03:18:34;;;;;;;;;;;;;;;;;;4928523;29;19932;-76
2022/07/07 03:21:01;;;;;;;;;;;;;;;;;;4929735;29;19923;-75
2022/07/07 03:23:28;;;;;;;;;;;;;;;;;;4929775;29;20414;-76
2022/07/07 03:25:56;;;;;;;;;;;;;;;;;;4915953;29;19931;-76
2022/07/07 03:28:23;;;;;;;;;;;;;;;;;;4929610;29;19979;-75
2022/07/07 03:30:51;;;;;;;;;;;;;;;;;;4935420;29;19958;-76
2022/07/07 03:33:18;;;;;;;;;;;;;;;;;;4932965;29;20129;-76
2022/07/07 03:35:50;;;;;;;;;;;;;;;;;;4927467;29;19937;-75
2022/07/07 03:38:17;;;;;;;;;;;;;;;;;;4927546;29;20029;-76
2022/07/07 03:40:45;;;;;;;;;;;;;;;;;;4927708;29;19926;-76
2022/07/07 03:43:12;;;;;;;;;;;;;;;;;;4927798;29;20314;-76
2022/07/07 03:45:40;;;;;;;;;;;;;;;;;;4925765;29;19927;-76
2022/07/07 03:48:08;;;;;;;;;;;;;;;;;;4927514;29;20028;-76
2022/07/07 03:50:35;;;;;;;;;;;;;;;;;;4954011;23;20429;-81
2022/07/07 03:53:02;;;;;;;;;;;;;;;;;;4930466;29;19926;-81
2022/07/07 03:55:30;;;;;;;;;;;;;;;;;;4926361;29;20309;-81
2022/07/07 03:57:59;;;;;;;;;;;;;;;;;;4934468;29;19935;-80
2022/07/07 04:00:26;;;;;;;;;;;;;;;;;;4909011;29;19927;-81
2022/07/07 04:02:54;;;;;;;;;;;;;;;;;;4910553;29;20306;-81
2022/07/07 04:05:21;;;;;;;;;;;;;;;;;;4929544;29;19927;-80
2022/07/07 04:07:49;;;;;;;;;;;;;;;;;;4919302;29;19930;-81
2022/07/07 04:10:16;;;;;;;;;;;;;;;;;;4918917;29;19959;-81
2022/07/07 04:12:43;;;;;;;;;;;;;;;;;;4931149;29;19927;-81
2022/07/07 04:15:11;;;;;;;;;;;;;;;;;;4922204;29;19989;-81
2022/07/07 04:17:39;;;;;;;;;;;;;;;;;;4927817;29;19942;-81
2022/07/07 04:20:11;;;;;;;;;;;;;;;;;;4908443;29;19927;-81
2022/07/07 04:22:38;;;;;;;;;;;;;;;;;;4909851;29;19934;-81
2022/07/07 04:25:06;;;;;;;;;;;;;;;;;;4908293;29;19978;-81
2022/07/07 04:27:33;;;;;;;;;;;;;;;;;;4890005;29;19973;-81
2022/07/07 04:30:00;;;;;;;;;;;;;;;;;;4908855;29;19927;-81
2022/07/07 04:32:32;;;;;;;;;;;;;;;;;;4920181;29;19931;-80
2022/07/07 04:35:00;;;;;;;;;;;;;;;;;;4921618;29;19958;-79
2022/07/07 04:37:27;;;;;;;;;;;;;;;;;;4904025;29;19931;-81
2022/07/07 04:39:54;;;;;;;;;;;;;;;;;;4890159;29;20029;-80
2022/07/07 04:42:22;;;;;;;;;;;;;;;;;;4910822;29;19927;-80
2022/07/07 04:44:51;;;;;;;;;;;;;;;;;;4917967;29;19931;-80
2022/07/07 04:47:18;;;;;;;;;;;;;;;;;;4924602;29;19926;-80
2022/07/07 04:49:46;;;;;;;;;;;;;;;;;;4919465;29;19935;-80
2022/07/07 04:52:16;;;;;;;;;;;;;;;;;;4926700;29;20561;-80
2022/07/07 04:54:44;;;;;;;;;;;;;;;;;;4909021;29;19927;-81
2022/07/07 04:57:12;;;;;;;;;;;;;;;;;;4878466;29;19926;-81
2022/07/07 04:59:40;;;;;;;;;;;;;;;;;;4923617;29;20047;-81
2022/07/07 05:02:08;;;;;;;;;;;;;;;;;;4908070;29;20123;-80
2022/07/07 05:04:35;;;;;;;;;;;;;;;;;;4908742;29;19974;-81
2022/07/07 05:07:02;;;;;;;;;;;;;;;;;;4921530;29;20383;-81
2022/07/07 05:09:30;;;;;;;;;;;;;;;;;;4915295;29;19927;-81
2022/07/07 05:11:57;;;;;;;;;;;;;;;;;;4923520;29;19926;-81
2022/07/07 05:14:24;;;;;;;;;;;;;;;;;;4907383;29;19933;-81
2022/07/07 05:16:51;;;;;;;;;;;;;;;;;;4905925;29;20015;-81
2022/07/07 05:19:19;;;;;;;;;;;;;;;;;;4907867;29;19927;-81
2022/07/07 05:21:46;;;;;;;;;;;;;;;;;;4907448;29;20415;-81
2022/07/07 05:24:14;;;;;;;;;;;;;;;;;;4906932;29;20464;-81
2022/07/07 05:26:41;;;;;;;;;;;;;;;;;;4906783;29;20314;-81
2022/07/07 05:29:08;;;;;;;;;;;;;;;;;;4904110;29;20500;-80
2022/07/07 05:31:35;;;;;;;;;;;;;;;;;;4904641;29;19927;-80
2022/07/07 05:34:03;;;;;;;;;;;;;;;;;;4911298;29;19937;-80
2022/07/07 05:36:30;;;;;;;;;;;;;;;;;;4930651;29;19923;-80
2022/07/07 05:38:57;;;;;;;;;;;;;;;;;;4909099;29;19938;-80
2022/07/07 05:41:24;;;;;;;;;;;;;;;;;;4910812;29;19923;-80
2022/07/07 05:43:52;;;;;;;;;;;;;;;;;;4914104;29;20020;-80
2022/07/07 05:46:19;;;;;;;;;;;;;;;;;;4908263;29;19923;-80
2022/07/07 05:48:46;;;;;;;;;;;;;;;;;;4924174;29;19930;-80
2022/07/07 05:51:14;;;;;;;;;;;;;;;;;;4925012;29;19931;-81
2022/07/07 05:53:41;;;;;;;;;;;;;;;;;;4909040;29;19965;-80
2022/07/07 05:56:09;;;;;;;;;;;;;;;;;;4906926;29;19923;-80
2022/07/07 05:58:36;;;;;;;;;;;;;;;;;;4908895;29;19949;-80
2022/07/07 06:01:03;;;;;;;;;;;;;;;;;;4923263;29;19934;-80
2022/07/07 06:03:30;;;;;;;;;;;;;;;;;;4906045;29;19933;-79
2022/07/07 06:05:58;;;;;;;;;;;;;;;;;;4909742;29;20037;-80
2022/07/07 06:08:28;;;;;;;;;;;;;;;;;;4924718;29;19931;-80
2022/07/07 06:10:55;;;;;;;;;;;;;;;;;;4925130;29;19927;-81
2022/07/07 06:13:22;;;;;;;;;;;;;;;;;;4909471;29;20141;-80
2022/07/07 06:15:50;;;;;;;;;;;;;;;;;;4911808;29;19978;-80
2022/07/07 06:18:17;;;;;;;;;;;;;;;;;;4914472;29;20477;-81
2022/07/07 06:20:44;;;;;;;;;;;;;;;;;;4915754;29;19929;-80
2022/07/07 06:23:12;;;;;;;;;;;;;;;;;;4924044;29;20280;-81
2022/07/07 06:25:39;;;;;;;;;;;;;;;;;;4913306;29;19933;-80
2022/07/07 06:28:06;;;;;;;;;;;;;;;;;;4911554;29;19926;-80
2022/07/07 06:30:34;;;;;;;;;;;;;;;;;;4911442;29;20018;-80
2022/07/07 06:33:01;;;;;;;;;;;;;;;;;;4914235;29;19923;-80
2022/07/07 06:35:28;;;;;;;;;;;;;;;;;;4909700;29;20013;-80
2022/07/07 06:40:51;;;;;;;;;;;;;;;;;;4894971;29;20425;-80
2022/07/07 06:43:19;;;;;;;;;;;;;;;;;;4901147;29;19926;-80
2022/07/07 06:45:47;;;;;;;;;;;;;;;;;;4888694;29;19965;-80
2022/07/07 06:48:15;;;;;;;;;;;;;;;;;;4887526;29;19966;-81
2022/07/07 06:50:42;;;;;;;;;;;;;;;;;;4910762;29;19958;-80
2022/07/07 06:53:09;;;;;;;;;;;;;;;;;;4907673;29;20531;-81
2022/07/07 06:55:36;;;;;;;;;;;;;;;;;;4910592;29;19987;-80
2022/07/07 06:58:04;;;;;;;;;;;;;;;;;;4890990;29;20018;-80
2022/07/07 07:00:31;;;;;;;;;;;;;;;;;;4878736;29;19975;-81
2022/07/07 07:02:58;;;;;;;;;;;;;;;;;;4883245;29;19927;-80
2022/07/07 07:05:26;;;;;;;;;;;;;;;;;;4893984;29;19924;-81
2022/07/07 07:07:53;;;;;;;;;;;;;;;;;;4915469;29;20039;-81
2022/07/07 07:10:20;;;;;;;;;;;;;;;;;;4879860;29;19923;-81
2022/07/07 07:12:47;;;;;;;;;;;;;;;;;;4878955;29;20017;-81
2022/07/07 07:15:15;;;;;;;;;;;;;;;;;;4910483;29;19954;-80
2022/07/07 07:17:42;;;;;;;;;;;;;;;;;;4890436;29;19954;-80
2022/07/07 07:20:17;;;;;;;;;;;;;;;;;;4893175;29;20254;-80
2022/07/07 07:22:44;;;;;;;;;;;;;;;;;;4871505;29;19932;-80
2022/07/07 07:25:12;;;;;;;;;;;;;;;;;;4901832;29;19928;-80
2022/07/07 07:27:39;;;;;;;;;;;;;;;;;;4874450;29;19955;-80
2022/07/07 07:30:06;;;;;;;;;;;;;;;;;;4924263;29;20204;-80
2022/07/07 07:32:34;;;;;;;;;;;;;;;;;;4904644;29;19931;-82
2022/07/07 07:35:01;;;;;;;;;;;;;;;;;;4906601;29;20281;-82
2022/07/07 07:37:29;;;;;;;;;;;;;;;;;;4877378;29;19927;-81
2022/07/07 07:39:56;;;;;;;;;;;;;;;;;;4893208;29;19974;-80
2022/07/07 07:42:23;;;;;;;;;;;;;;;;;;4876692;29;20644;-79
2022/07/07 07:47:37;;;;;;;;;;;;;;;;;;4889935;29;19942;-81
2022/07/07 07:50:04;;;;;;;;;;;;;;;;;;4913696;29;19927;-81
2022/07/07 07:52:32;;;;;;;;;;;;;;;;;;4886942;29;19983;-80
2022/07/07 07:54:59;;;;;;;;;;;;;;;;;;4890693;29;20026;-81
2022/07/07 07:57:26;;;;;;;;;;;;;;;;;;4888787;29;20054;-79
2022/07/07 07:59:54;;;;;;;;;;;;;;;;;;4895357;29;19931;-81
2022/07/07 08:02:21;;;;;;;;;;;;;;;;;;4890901;29;20042;-80
2022/07/07 08:04:48;;;;;;;;;;;;;;;;;;4903209;29;20018;-81
2022/07/07 08:07:16;;;;;;;;;;;;;;;;;;4858785;29;20402;-80
2022/07/07 08:09:43;;;;;;;;;;;;;;;;;;4874147;29;20007;-79
2022/07/07 08:12:11;;;;;;;;;;;;;;;;;;4865172;29;19931;-81
2022/07/07 08:14:42;;;;;;;;;;;;;;;;;;4901594;29;19986;-82
2022/07/07 08:17:10;;;;;;;;;;;;;;;;;;4879688;29;20296;-80
2022/07/07 08:19:37;;;;;;;;;;;;;;;;;;4890092;29;20281;-81
2022/07/07 08:22:05;;;;;;;;;;;;;;;;;;4860450;29;20104;-81
2022/07/07 08:24:33;;;;;;;;;;;;;;;;;;4870584;29;20782;-81
2022/07/07 08:27:00;;;;;;;;;;;;;;;;;;4905443;29;19931;-81
2022/07/07 08:29:28;;;;;;;;;;;;;;;;;;4892331;29;20352;-81
2022/07/07 08:31:55;;;;;;;;;;;;;;;;;;4875379;29;20432;-81
2022/07/07 08:34:23;;;;;;;;;;;;;;;;;;4862582;29;20392;-80
2022/07/07 08:36:52;;;;;;;;;;;;;;;;;;4884809;29;19995;-80
2022/07/07 08:39:19;;;;;;;;;;;;;;;;;;4867436;29;20396;-81
2022/07/07 08:41:46;;;;;;;;;;;;;;;;;;4905741;29;19927;-83
2022/07/07 08:44:13;;;;;;;;;;;;;;;;;;4865897;29;20443;-80
2022/07/07 08:46:40;;;;;;;;;;;;;;;;;;4890502;29;19977;-80
2022/07/07 08:49:08;;;;;;;;;;;;;;;;;;4879063;29;19993;-80
2022/07/07 08:51:35;;;;;;;;;;;;;;;;;;4870509;29;20427;-81
2022/07/07 08:54:02;;;;;;;;;;;;;;;;;;4888480;29;19975;-82
2022/07/07 08:56:31;;;;;;;;;;;;;;;;;;4871910;29;19927;-82
2022/07/07 08:58:59;;;;;;;;;;;;;;;;;;4877810;29;20121;-80
2022/07/07 09:01:29;;;;;;;;;;;;;;;;;;4889708;29;20220;-82
2022/07/07 09:03:56;;;;;;;;;;;;;;;;;;4891789;29;20044;-81
2022/07/07 09:06:24;;;;;;;;;;;;;;;;;;4883190;29;20479;-82
2022/07/07 09:08:51;;;;;;;;;;;;;;;;;;4891312;29;20277;-81
2022/07/07 09:11:18;;;;;;;;;;;;;;;;;;4887771;29;19983;-82
2022/07/07 09:13:46;;;;;;;;;;;;;;;;;;4888097;29;19927;-81
2022/07/07 09:16:13;;;;;;;;;;;;;;;;;;4887087;29;20303;-80
2022/07/07 09:18:40;;;;;;;;;;;;;;;;;;4872543;29;19934;-81
2022/07/07 09:21:07;;;;;;;;;;;;;;;;;;4884483;29;19931;-81
2022/07/07 09:23:35;;;;;;;;;;;;;;;;;;4883387;29;19938;-81
2022/07/07 09:26:02;;;;;;;;;;;;;;;;;;4885287;29;20129;-81
2022/07/07 09:28:29;;;;;;;;;;;;;;;;;;4890109;29;20030;-82
2022/07/07 09:31:01;;;;;;;;;;;;;;;;;;4890167;29;20371;-81
2022/07/07 09:33:28;;;;;;;;;;;;;;;;;;4871475;29;20460;-81
2022/07/07 09:38:43;;;;;;;;;;;;;;;;;;4891476;29;20347;-82
2022/07/07 09:41:12;;;;;;;;;;;;;;;;;;4871136;29;20382;-83
2022/07/07 09:43:40;;;;;;;;;;;;;;;;;;4884284;29;20027;-82
2022/07/07 09:46:07;;;;;;;;;;;;;;;;;;4868814;29;19927;-81
2022/07/07 09:48:35;;;;;;;;;;;;;;;;;;4894250;29;19937;-81
2022/07/07 09:51:02;;;;;;;;;;;;;;;;;;4941169;23;19994;-76
2022/07/07 09:53:29;;;;;;;;;;;;;;;;;;4917354;29;20009;-76
2022/07/07 09:55:57;;;;;;;;;;;;;;;;;;4923460;29;19926;-76
2022/07/07 09:58:24;;;;;;;;;;;;;;;;;;4927136;29;19926;-76
2022/07/07 10:00:52;;;;;;;;;;;;;;;;;;4923381;29;19927;-76
2022/07/07 10:03:19;;;;;;;;;;;;;;;;;;4920085;29;20025;-76
2022/07/07 10:05:46;;;;;;;;;;;;;;;;;;4925250;29;20573;-76
2022/07/07 10:08:14;;;;;;;;;;;;;;;;;;4926224;29;20060;-76
2022/07/07 10:10:41;;;;;;;;;;;;;;;;;;4928511;29;19931;-76
2022/07/07 10:13:08;;;;;;;;;;;;;;;;;;4922939;29;19977;-76
2022/07/07 10:15:35;;;;;;;;;;;;;;;;;;4927805;29;20205;-76
2022/07/07 10:18:05;;;;;;;;;;;;;;;;;;4925245;29;19942;-77
2022/07/07 10:20:32;;;;;;;;;;;;;;;;;;4929468;29;19974;-78
2022/07/07 10:22:59;;;;;;;;;;;;;;;;;;4925858;29;19927;-78
2022/07/07 10:25:27;;;;;;;;;;;;;;;;;;4921621;29;20394;-77
2022/07/07 10:27:54;;;;;;;;;;;;;;;;;;4926994;29;19937;-77
2022/07/07 10:30:21;;;;;;;;;;;;;;;;;;4926626;29;19935;-77
2022/07/07 10:32:49;;;;;;;;;;;;;;;;;;4924055;29;20025;-78
2022/07/07 10:35:16;;;;;;;;;;;;;;;;;;4941512;29;19927;-77
2022/07/07 10:37:44;;;;;;;;;;;;;;;;;;4939863;29;20014;-77
2022/07/07 10:40:11;;;;;;;;;;;;;;;;;;4926812;29;20021;-77
2022/07/07 10:42:39;;;;;;;;;;;;;;;;;;4921650;29;19942;-77
2022/07/07 10:45:07;;;;;;;;;;;;;;;;;;4920011;29;20310;-77
2022/07/07 10:47:35;;;;;;;;;;;;;;;;;;4942479;29;19927;-78
2022/07/07 10:50:02;;;;;;;;;;;;;;;;;;4937134;29;19926;-78
2022/07/07 10:52:30;;;;;;;;;;;;;;;;;;4956097;29;19926;-79
2022/07/07 10:55:05;;;;;;;;;;;;;;;;;;4949983;29;20719;-78
2022/07/07 10:57:33;;;;;;;;;;;;;;;;;;4920847;29;19930;-78
2022/07/07 11:00:05;;;;;;;;;;;;;;;;;;4956173;29;19958;-78
2022/07/07 11:02:32;;;;;;;;;;;;;;;;;;4931376;29;19950;-77
2022/07/07 11:05:00;;;;;;;;;;;;;;;;;;4953976;29;19933;-78
2022/07/07 11:07:28;;;;;;;;;;;;;;;;;;4947212;29;20334;-77
2022/07/07 11:10:03;;;;;;;;;;;;;;;;;;4943099;28;19973;-77
2022/07/07 11:12:30;;;;;;;;;;;;;;;;;;4943797;29;19927;-77
2022/07/07 11:14:57;;;;;;;;;;;;;;;;;;4940876;29;19930;-77
2022/07/07 11:17:28;;;;;;;;;;;;;;;;;;4929905;29;20021;-77
2022/07/07 11:19:58;;;;;;;;;;;;;;;;;;4895875;29;20407;-77
2022/07/07 11:22:25;;;;;;;;;;;;;;;;;;4935917;29;19927;-77
2022/07/07 11:24:53;;;;;;;;;;;;;;;;;;4927991;29;19930;-77
2022/07/07 11:27:20;;;;;;;;;;;;;;;;;;4946251;29;20335;-78
2022/07/07 11:29:47;;;;;;;;;;;;;;;;;;4928312;29;19962;-77
2022/07/07 11:32:15;;;;;;;;;;;;;;;;;;4945957;29;20041;-77
2022/07/07 11:34:48;;;;;;;;;;;;;;;;;;4949253;29;19926;-77
2022/07/07 11:37:16;;;;;;;;;;;;;;;;;;4928801;29;20328;-77
2022/07/07 11:39:43;;;;;;;;;;;;;;;;;;4946029;29;19926;-77
2022/07/07 11:42:11;;;;;;;;;;;;;;;;;;4947252;29;19926;-77
2022/07/07 11:44:39;;;;;;;;;;;;;;;;;;4927855;29;20034;-77
2022/07/07 11:47:06;;;;;;;;;;;;;;;;;;4944978;29;19933;-77
2022/07/07 11:49:33;;;;;;;;;;;;;;;;;;4944888;29;20020;-77
2022/07/07 11:52:01;;;;;;;;;;;;;;;;;;4946857;29;19933;-77
2022/07/07 11:54:28;;;;;;;;;;;;;;;;;;4942530;29;20408;-76
2022/07/07 11:56:55;;;;;;;;;;;;;;;;;;4946901;29;19926;-77
2022/07/07 11:59:22;;;;;;;;;;;;;;;;;;4943166;29;19974;-77
2022/07/07 12:01:51;;;;;;;;;;;;;;;;;;4912802;29;20020;-77
2022/07/07 12:04:20;;;;;;;;;;;;;;;;;;4927061;29;19932;-77
2022/07/07 12:06:48;;;;;;;;;;;;;;;;;;4944386;29;19933;-77
2022/07/07 12:09:19;;;;;;;;;;;;;;;;;;4927399;29;20048;-77
2022/07/07 12:11:48;;;;;;;;;;;;;;;;;;4944453;29;19927;-77
2022/07/07 12:14:15;;;;;;;;;;;;;;;;;;4929571;29;19926;-78
2022/07/07 12:16:42;;;;;;;;;;;;;;;;;;4945728;29;20394;-77
2022/07/07 12:19:10;;;;;;;;;;;;;;;;;;4928089;29;19961;-78
2022/07/07 12:21:37;;;;;;;;;;;;;;;;;;4929732;29;19957;-77
2022/07/07 12:24:05;;;;;;;;;;;;;;;;;;4911212;29;20608;-77
2022/07/07 12:26:32;;;;;;;;;;;;;;;;;;4928625;29;20368;-76
2022/07/07 12:29:00;;;;;;;;;;;;;;;;;;4936415;29;20284;-76
2022/07/07 12:31:27;;;;;;;;;;;;;;;;;;4924070;29;20392;-77
2022/07/07 12:33:58;;;;;;;;;;;;;;;;;;4941119;29;20413;-77
2022/07/07 12:36:25;;;;;;;;;;;;;;;;;;4944635;29;19931;-77
2022/07/07 12:38:53;;;;;;;;;;;;;;;;;;4940532;29;20533;-77
2022/07/07 12:41:20;;;;;;;;;;;;;;;;;;4943390;29;19927;-77
2022/07/07 12:43:48;;;;;;;;;;;;;;;;;;4926417;29;20112;-78
2022/07/07 12:46:15;;;;;;;;;;;;;;;;;;4946456;29;20390;-77
2022/07/07 12:48:42;;;;;;;;;;;;;;;;;;4944813;29;20166;-78
2022/07/07 12:51:10;;;;;;;;;;;;;;;;;;4948541;29;19927;-78
2022/07/07 12:53:37;;;;;;;;;;;;;;;;;;4949091;29;19974;-78
2022/07/07 12:56:04;;;;;;;;;;;;;;;;;;4934253;29;20265;-78
2022/07/07 12:58:32;;;;;;;;;;;;;;;;;;4947981;29;19926;-77
2022/07/07 13:01:00;;;;;;;;;;;;;;;;;;4952875;29;19926;-77
2022/07/07 13:03:28;;;;;;;;;;;;;;;;;;4945704;29;19926;-77
2022/07/07 13:05:58;;;;;;;;;;;;;;;;;;4946171;29;20013;-78
2022/07/07 13:08:26;;;;;;;;;;;;;;;;;;4945469;29;19936;-78
2022/07/07 13:10:53;;;;;;;;;;;;;;;;;;4942491;29;19937;-78
2022/07/07 13:13:20;;;;;;;;;;;;;;;;;;4942438;29;19933;-78
2022/07/07 13:15:48;;;;;;;;;;;;;;;;;;4944974;29;19926;-78
2022/07/07 13:18:15;;;;;;;;;;;;;;;;;;4943386;28;20555;-78
2022/07/07 13:20:42;;;;;;;;;;;;;;;;;;4937676;28;20394;-77
2022/07/07 13:23:11;;;;;;;;;;;;;;;;;;4943959;28;20020;-77
2022/07/07 13:25:39;;;;;;;;;;;;;;;;;;4928403;29;19930;-77
2022/07/07 13:28:06;;;;;;;;;;;;;;;;;;4941927;29;19959;-78
2022/07/07 13:30:35;;;;;;;;;;;;;;;;;;4946079;29;20330;-79
2022/07/07 13:33:03;;;;;;;;;;;;;;;;;;4942599;28;19930;-78
2022/07/07 13:35:30;;;;;;;;;;;;;;;;;;4926600;29;19926;-78
2022/07/07 13:37:58;;;;;;;;;;;;;;;;;;4943989;29;19926;-79
2022/07/07 13:40:25;;;;;;;;;;;;;;;;;;4945477;29;19926;-78
2022/07/07 13:42:59;;;;;;;;;;;;;;;;;;4945821;29;20386;-78
2022/07/07 13:45:27;;;;;;;;;;;;;;;;;;4927801;29;20030;-79
2022/07/07 13:47:54;;;;;;;;;;;;;;;;;;4945301;29;19926;-78
2022/07/07 13:50:21;;;;;;;;;;;;;;;;;;4944195;29;20462;-79
2022/07/07 13:52:53;;;;;;;;;;;;;;;;;;4937663;29;19927;-78
2022/07/07 13:55:21;;;;;;;;;;;;;;;;;;4938815;29;19930;-78
2022/07/07 13:57:48;;;;;;;;;;;;;;;;;;4925646;29;20020;-78
2022/07/07 14:00:15;;;;;;;;;;;;;;;;;;4942160;29;20434;-77
2022/07/07 14:02:45;;;;;;;;;;;;;;;;;;4941721;29;20378;-77
2022/07/07 14:05:13;;;;;;;;;;;;;;;;;;4943096;29;20387;-76
2022/07/07 14:07:40;;;;;;;;;;;;;;;;;;4938972;29;20020;-78
2022/07/07 14:10:08;;;;;;;;;;;;;;;;;;4903858;29;20029;-77
2022/07/07 14:12:35;;;;;;;;;;;;;;;;;;4944389;29;19926;-78
2022/07/07 14:15:02;;;;;;;;;;;;;;;;;;4941455;29;19926;-78
2022/07/07 14:17:30;;;;;;;;;;;;;;;;;;4937863;29;19934;-78
2022/07/07 14:19:57;;;;;;;;;;;;;;;;;;4936651;29;19930;-78
2022/07/07 14:22:24;;;;;;;;;;;;;;;;;;4935297;29;19926;-77
2022/07/07 14:24:52;;;;;;;;;;;;;;;;;;4907476;29;19927;-78
2022/07/07 14:27:20;;;;;;;;;;;;;;;;;;4907724;29;19989;-77
2022/07/07 14:29:47;;;;;;;;;;;;;;;;;;4943278;29;19933;-77
2022/07/07 14:32:14;;;;;;;;;;;;;;;;;;4943827;29;19973;-77
2022/07/07 14:34:42;;;;;;;;;;;;;;;;;;4943586;29;19926;-77
2022/07/07 14:37:09;;;;;;;;;;;;;;;;;;4944212;29;19927;-76
2022/07/07 14:39:36;;;;;;;;;;;;;;;;;;4945422;29;20130;-77
2022/07/07 14:42:03;;;;;;;;;;;;;;;;;;4945751;29;20044;-76
2022/07/07 14:44:31;;;;;;;;;;;;;;;;;;4913329;29;19926;-77
2022/07/07 14:46:58;;;;;;;;;;;;;;;;;;4931446;29;20025;-78
2022/07/07 14:49:26;;;;;;;;;;;;;;;;;;4948779;29;19926;-78
2022/07/07 14:51:53;;;;;;;;;;;;;;;;;;4947912;29;20009;-78
2022/07/07 14:54:20;;;;;;;;;;;;;;;;;;4948190;29;19930;-78
2022/07/07 14:56:47;;;;;;;;;;;;;;;;;;4948701;29;19926;-78
2022/07/07 14:59:15;;;;;;;;;;;;;;;;;;4949294;29;20379;-79
2022/07/07 15:01:42;;;;;;;;;;;;;;;;;;4949503;29;19965;-78
2022/07/07 15:04:16;;;;;;;;;;;;;;;;;;4932177;29;20032;-79
2022/07/07 15:06:44;;;;;;;;;;;;;;;;;;4930816;29;19977;-79
2022/07/07 15:09:11;;;;;;;;;;;;;;;;;;4935032;29;19976;-79
2022/07/07 15:11:39;;;;;;;;;;;;;;;;;;4935571;29;19946;-79
2022/07/07 15:14:06;;;;;;;;;;;;;;;;;;4948151;29;20390;-79
2022/07/07 15:16:34;;;;;;;;;;;;;;;;;;4951820;29;19941;-79
2022/07/07 15:19:01;;;;;;;;;;;;;;;;;;4950540;29;20405;-78
2022/07/07 15:21:31;;;;;;;;;;;;;;;;;;4932532;29;19934;-79
2022/07/07 15:23:58;;;;;;;;;;;;;;;;;;4929567;29;19923;-78
2022/07/07 15:26:25;;;;;;;;;;;;;;;;;;4951718;29;20401;-78
2022/07/07 15:28:56;;;;;;;;;;;;;;;;;;4952919;29;20017;-78
2022/07/07 15:31:32;;;;;;;;;;;;;;;;;;4949357;29;20446;-77
2022/07/07 15:33:59;;;;;;;;;;;;;;;;;;4952463;29;19926;-78
2022/07/07 15:36:27;;;;;;;;;;;;;;;;;;4945793;29;20307;-79
2022/07/07 15:38:54;;;;;;;;;;;;;;;;;;4952904;29;19930;-78
2022/07/07 15:41:21;;;;;;;;;;;;;;;;;;4953740;29;19930;-78
2022/07/07 15:43:48;;;;;;;;;;;;;;;;;;4935098;29;20282;-78
2022/07/07 15:46:16;;;;;;;;;;;;;;;;;;4953266;29;20363;-77
2022/07/07 15:48:44;;;;;;;;;;;;;;;;;;4942105;28;19927;-77
2022/07/07 15:51:12;;;;;;;;;;;;;;;;;;4949844;23;19932;-79
2022/07/07 15:53:39;;;;;;;;;;;;;;;;;;4948254;29;19933;-79
2022/07/07 15:56:06;;;;;;;;;;;;;;;;;;4945959;28;19926;-79
2022/07/07 15:58:34;;;;;;;;;;;;;;;;;;4975625;28;20453;-79
2022/07/07 16:01:01;;;;;;;;;;;;;;;;;;4946941;28;19930;-79
2022/07/07 16:03:29;;;;;;;;;;;;;;;;;;4945999;29;19922;-79
2022/07/07 16:05:57;;;;;;;;;;;;;;;;;;4944288;29;19930;-79
2022/07/07 16:08:28;;;;;;;;;;;;;;;;;;4941551;28;19954;-80
2022/07/07 16:10:56;;;;;;;;;;;;;;;;;;4961878;28;20340;-79
2022/07/07 16:13:23;;;;;;;;;;;;;;;;;;4945903;28;19931;-79
2022/07/07 16:15:50;;;;;;;;;;;;;;;;;;4937462;29;19956;-80
2022/07/07 16:18:17;;;;;;;;;;;;;;;;;;4925493;29;20307;-80
2022/07/07 16:20:45;;;;;;;;;;;;;;;;;;4940207;29;19930;-80
2022/07/07 16:23:12;;;;;;;;;;;;;;;;;;4946328;29;19941;-81
2022/07/07 16:25:39;;;;;;;;;;;;;;;;;;4944077;29;20005;-80
2022/07/07 16:28:07;;;;;;;;;;;;;;;;;;4941278;29;19936;-81
2022/07/07 16:30:34;;;;;;;;;;;;;;;;;;4942958;28;19930;-81
2022/07/07 16:33:01;;;;;;;;;;;;;;;;;;4950182;29;20401;-81
2022/07/07 16:35:29;;;;;;;;;;;;;;;;;;4944886;29;19922;-81
2022/07/07 16:38:00;;;;;;;;;;;;;;;;;;4937345;28;20350;-82
2022/07/07 16:40:27;;;;;;;;;;;;;;;;;;4931268;29;20390;-82
2022/07/07 16:42:55;;;;;;;;;;;;;;;;;;4931282;29;19977;-82
2022/07/07 16:45:22;;;;;;;;;;;;;;;;;;4919100;29;19966;-81
2022/07/07 16:47:49;;;;;;;;;;;;;;;;;;4940327;28;20024;-81
2022/07/07 16:50:17;;;;;;;;;;;;;;;;;;4942410;28;20340;-81
2022/07/07 16:52:45;;;;;;;;;;;;;;;;;;4959445;28;19926;-80
2022/07/07 16:55:12;;;;;;;;;;;;;;;;;;4960783;28;20314;-80
2022/07/07 16:57:39;;;;;;;;;;;;;;;;;;4928917;28;20403;-81